sensor_id;sensor_type;location;lat;lon;timestamp;pressure;altitude;pressure_sealevel;temperature
41593;BMP180;28026;48.562;14.440;2023-02-13T00:02:27;95521.00;;;10.70
41593;BMP180;28026;48.562;14.440;2023-02-13T00:04:58;95526.00;;;10.70
41593;BMP180;28026;48.562;14.440;2023-02-13T00:07:29;95520.00;;;10.70
41593;BMP180;28026;48.562;14.440;2023-02-13T00:10:00;95512.00;;;10.70
41593;BMP180;28026;48.562;14.440;2023-02-13T00:12:31;95513.00;;;10.70
41593;BMP180;28026;48.562;14.440;2023-02-13T00:15:03;95518.00;;;10.60
41593;BMP180;28026;48.562;14.440;2023-02-13T00:17:35;95515.00;;;10.60
41593;BMP180;28026;48.562;14.440;2023-02-13T00:20:09;95514.00;;;10.70
41593;BMP180;28026;48.562;14.440;2023-02-13T00:22:41;95513.00;;;10.70
41593;BMP180;28026;48.562;14.440;2023-02-13T00:25:12;95510.00;;;10.60
41593;BMP180;28026;48.562;14.440;2023-02-13T00:27:43;95503.00;;;10.50
41593;BMP180;28026;48.562;14.440;2023-02-13T00:30:14;95512.00;;;10.50
41593;BMP180;28026;48.562;14.440;2023-02-13T00:32:46;95517.00;;;10.60
41593;BMP180;28026;48.562;14.440;2023-02-13T00:35:17;95521.00;;;10.50
41593;BMP180;28026;48.562;14.440;2023-02-13T00:37:48;95518.00;;;10.50
41593;BMP180;28026;48.562;14.440;2023-02-13T00:40:18;95519.00;;;10.50
41593;BMP180;28026;48.562;14.440;2023-02-13T00:42:49;95523.00;;;10.50
41593;BMP180;28026;48.562;14.440;2023-02-13T00:45:20;95512.00;;;10.60
41593;BMP180;28026;48.562;14.440;2023-02-13T00:47:51;95524.00;;;10.60
41593;BMP180;28026;48.562;14.440;2023-02-13T00:50:22;95522.00;;;10.60
41593;BMP180;28026;48.562;14.440;2023-02-13T00:52:53;95519.00;;;10.50
41593;BMP180;28026;48.562;14.440;2023-02-13T00:55:24;95524.00;;;10.50
41593;BMP180;28026;48.562;14.440;2023-02-13T00:57:55;95524.00;;;10.50
41593;BMP180;28026;48.562;14.440;2023-02-13T01:00:26;95527.00;;;10.50
41593;BMP180;28026;48.562;14.440;2023-02-13T01:02:57;95524.00;;;10.40
41593;BMP180;28026;48.562;14.440;2023-02-13T01:05:28;95523.00;;;10.40
41593;BMP180;28026;48.562;14.440;2023-02-13T01:07:59;95526.00;;;10.40
41593;BMP180;28026;48.562;14.440;2023-02-13T01:10:30;95524.00;;;10.40
41593;BMP180;28026;48.562;14.440;2023-02-13T01:13:01;95521.00;;;10.40
41593;BMP180;28026;48.562;14.440;2023-02-13T01:15:33;95528.00;;;10.40
41593;BMP180;28026;48.562;14.440;2023-02-13T01:18:04;95529.00;;;10.40
41593;BMP180;28026;48.562;14.440;2023-02-13T01:20:35;95526.00;;;10.40
41593;BMP180;28026;48.562;14.440;2023-02-13T01:23:06;95524.00;;;10.40
41593;BMP180;28026;48.562;14.440;2023-02-13T01:25:43;95516.00;;;10.40
41593;BMP180;28026;48.562;14.440;2023-02-13T01:28:14;95515.00;;;10.40
41593;BMP180;28026;48.562;14.440;2023-02-13T01:30:44;95517.00;;;10.40
41593;BMP180;28026;48.562;14.440;2023-02-13T01:33:15;95510.00;;;10.40
41593;BMP180;28026;48.562;14.440;2023-02-13T01:35:47;95508.00;;;10.40
41593;BMP180;28026;48.562;14.440;2023-02-13T01:38:19;95508.00;;;10.40
41593;BMP180;28026;48.562;14.440;2023-02-13T01:40:53;95516.00;;;10.40
41593;BMP180;28026;48.562;14.440;2023-02-13T01:43:45;95510.00;;;10.40
41593;BMP180;28026;48.562;14.440;2023-02-13T01:49:09;95502.00;;;10.50
41593;BMP180;28026;48.562;14.440;2023-02-13T01:51:48;95492.00;;;10.50
41593;BMP180;28026;48.562;14.440;2023-02-13T01:54:30;95502.00;;;10.50
41593;BMP180;28026;48.562;14.440;2023-02-13T01:57:25;95491.00;;;10.60
41593;BMP180;28026;48.562;14.440;2023-02-13T02:00:12;95492.00;;;10.60
41593;BMP180;28026;48.562;14.440;2023-02-13T02:02:53;95482.00;;;10.50
41593;BMP180;28026;48.562;14.440;2023-02-13T02:05:33;95488.00;;;10.50
41593;BMP180;28026;48.562;14.440;2023-02-13T02:08:09;95489.00;;;10.60
41593;BMP180;28026;48.562;14.440;2023-02-13T02:10:44;95487.00;;;10.60
41593;BMP180;28026;48.562;14.440;2023-02-13T02:13:19;95493.00;;;10.60
41593;BMP180;28026;48.562;14.440;2023-02-13T02:15:51;95491.00;;;10.60
41593;BMP180;28026;48.562;14.440;2023-02-13T02:18:23;95484.00;;;10.50
41593;BMP180;28026;48.562;14.440;2023-02-13T02:24:22;95482.00;;;10.50
41593;BMP180;28026;48.562;14.440;2023-02-13T02:33:51;95485.00;;;10.50
41593;BMP180;28026;48.562;14.440;2023-02-13T02:43:18;95486.00;;;10.50
41593;BMP180;28026;48.562;14.440;2023-02-13T02:46:50;95489.00;;;10.60
41593;BMP180;28026;48.562;14.440;2023-02-13T02:49:53;95483.00;;;10.60
41593;BMP180;28026;48.562;14.440;2023-02-13T02:56:22;95482.00;;;10.60
41593;BMP180;28026;48.562;14.440;2023-02-13T02:59:15;95487.00;;;10.60
41593;BMP180;28026;48.562;14.440;2023-02-13T03:02:11;95475.00;;;10.60
41593;BMP180;28026;48.562;14.440;2023-02-13T03:05:03;95473.00;;;10.50
41593;BMP180;28026;48.562;14.440;2023-02-13T03:08:05;95475.00;;;10.60
41593;BMP180;28026;48.562;14.440;2023-02-13T03:10:37;95477.00;;;10.60
41593;BMP180;28026;48.562;14.440;2023-02-13T03:13:46;95481.00;;;10.60
41593;BMP180;28026;48.562;14.440;2023-02-13T03:16:23;95483.00;;;10.60
41593;BMP180;28026;48.562;14.440;2023-02-13T03:20:02;95478.00;;;10.60
41593;BMP180;28026;48.562;14.440;2023-02-13T03:23:15;95486.00;;;10.60
41593;BMP180;28026;48.562;14.440;2023-02-13T03:28:56;95480.00;;;10.70
41593;BMP180;28026;48.562;14.440;2023-02-13T03:32:16;95481.00;;;10.60
41593;BMP180;28026;48.562;14.440;2023-02-13T03:35:38;95481.00;;;10.60
41593;BMP180;28026;48.562;14.440;2023-02-13T03:38:56;95479.00;;;10.50
41593;BMP180;28026;48.562;14.440;2023-02-13T03:47:47;95471.00;;;10.50
41593;BMP180;28026;48.562;14.440;2023-02-13T03:50:25;95478.00;;;10.50
41593;BMP180;28026;48.562;14.440;2023-02-13T03:53:05;95480.00;;;10.50
41593;BMP180;28026;48.562;14.440;2023-02-13T03:55:46;95477.00;;;10.60
41593;BMP180;28026;48.562;14.440;2023-02-13T03:58:45;95483.00;;;10.60
41593;BMP180;28026;48.562;14.440;2023-02-13T04:01:40;95474.00;;;10.60
41593;BMP180;28026;48.562;14.440;2023-02-13T04:04:57;95477.00;;;10.60
41593;BMP180;28026;48.562;14.440;2023-02-13T04:07:34;95472.00;;;10.50
41593;BMP180;28026;48.562;14.440;2023-02-13T04:10:13;95475.00;;;10.60
41593;BMP180;28026;48.562;14.440;2023-02-13T04:16:16;95480.00;;;10.60
41593;BMP180;28026;48.562;14.440;2023-02-13T04:19:13;95469.00;;;10.60
41593;BMP180;28026;48.562;14.440;2023-02-13T04:21:55;95473.00;;;10.70
41593;BMP180;28026;48.562;14.440;2023-02-13T04:24:27;95468.00;;;10.60
41593;BMP180;28026;48.562;14.440;2023-02-13T04:26:59;95468.00;;;10.70
41593;BMP180;28026;48.562;14.440;2023-02-13T04:29:30;95464.00;;;10.70
41593;BMP180;28026;48.562;14.440;2023-02-13T04:32:01;95466.00;;;10.70
41593;BMP180;28026;48.562;14.440;2023-02-13T04:34:31;95453.00;;;10.70
41593;BMP180;28026;48.562;14.440;2023-02-13T04:37:03;95463.00;;;10.70
41593;BMP180;28026;48.562;14.440;2023-02-13T04:39:34;95469.00;;;10.70
41593;BMP180;28026;48.562;14.440;2023-02-13T04:42:05;95465.00;;;10.70
41593;BMP180;28026;48.562;14.440;2023-02-13T04:44:36;95463.00;;;10.70
41593;BMP180;28026;48.562;14.440;2023-02-13T04:47:06;95463.00;;;10.70
41593;BMP180;28026;48.562;14.440;2023-02-13T04:49:37;95467.00;;;10.70
41593;BMP180;28026;48.562;14.440;2023-02-13T04:52:08;95465.00;;;10.70
41593;BMP180;28026;48.562;14.440;2023-02-13T04:54:39;95463.00;;;10.70
41593;BMP180;28026;48.562;14.440;2023-02-13T04:57:10;95460.00;;;10.70
41593;BMP180;28026;48.562;14.440;2023-02-13T04:59:41;95461.00;;;10.70
41593;BMP180;28026;48.562;14.440;2023-02-13T05:02:12;95465.00;;;10.70
41593;BMP180;28026;48.562;14.440;2023-02-13T05:04:43;95466.00;;;10.60
41593;BMP180;28026;48.562;14.440;2023-02-13T05:07:14;95463.00;;;10.60
41593;BMP180;28026;48.562;14.440;2023-02-13T05:09:45;95463.00;;;10.60
41593;BMP180;28026;48.562;14.440;2023-02-13T05:12:15;95466.00;;;10.60
41593;BMP180;28026;48.562;14.440;2023-02-13T05:14:46;95452.00;;;10.50
41593;BMP180;28026;48.562;14.440;2023-02-13T05:17:17;95453.00;;;10.50
41593;BMP180;28026;48.562;14.440;2023-02-13T05:19:48;95458.00;;;10.50
41593;BMP180;28026;48.562;14.440;2023-02-13T05:22:19;95453.00;;;10.50
41593;BMP180;28026;48.562;14.440;2023-02-13T05:25:08;95460.00;;;10.40
41593;BMP180;28026;48.562;14.440;2023-02-13T05:27:39;95463.00;;;10.40
41593;BMP180;28026;48.562;14.440;2023-02-13T05:30:11;95463.00;;;10.50
41593;BMP180;28026;48.562;14.440;2023-02-13T05:32:42;95453.00;;;10.50
41593;BMP180;28026;48.562;14.440;2023-02-13T05:35:14;95458.00;;;10.50
41593;BMP180;28026;48.562;14.440;2023-02-13T05:37:44;95466.00;;;10.50
41593;BMP180;28026;48.562;14.440;2023-02-13T05:40:16;95466.00;;;10.50
41593;BMP180;28026;48.562;14.440;2023-02-13T05:42:47;95463.00;;;10.40
41593;BMP180;28026;48.562;14.440;2023-02-13T05:45:17;95470.00;;;10.40
41593;BMP180;28026;48.562;14.440;2023-02-13T05:47:48;95464.00;;;10.40
41593;BMP180;28026;48.562;14.440;2023-02-13T05:50:19;95473.00;;;10.40
41593;BMP180;28026;48.562;14.440;2023-02-13T05:52:50;95478.00;;;10.40
41593;BMP180;28026;48.562;14.440;2023-02-13T05:55:21;95484.00;;;10.40
41593;BMP180;28026;48.562;14.440;2023-02-13T05:57:56;95479.00;;;10.40
41593;BMP180;28026;48.562;14.440;2023-02-13T06:00:27;95478.00;;;10.40
41593;BMP180;28026;48.562;14.440;2023-02-13T06:02:58;95483.00;;;10.40
41593;BMP180;28026;48.562;14.440;2023-02-13T06:05:29;95483.00;;;10.40
41593;BMP180;28026;48.562;14.440;2023-02-13T06:08:00;95487.00;;;10.40
41593;BMP180;28026;48.562;14.440;2023-02-13T06:10:31;95482.00;;;10.40
41593;BMP180;28026;48.562;14.440;2023-02-13T06:13:02;95495.00;;;10.40
41593;BMP180;28026;48.562;14.440;2023-02-13T06:15:32;95498.00;;;10.40
41593;BMP180;28026;48.562;14.440;2023-02-13T06:18:05;95493.00;;;10.40
41593;BMP180;28026;48.562;14.440;2023-02-13T06:20:36;95487.00;;;10.30
41593;BMP180;28026;48.562;14.440;2023-02-13T06:23:07;95493.00;;;10.30
41593;BMP180;28026;48.562;14.440;2023-02-13T06:25:38;95493.00;;;10.30
41593;BMP180;28026;48.562;14.440;2023-02-13T06:28:09;95496.00;;;10.30
41593;BMP180;28026;48.562;14.440;2023-02-13T06:30:40;95497.00;;;10.30
41593;BMP180;28026;48.562;14.440;2023-02-13T06:33:11;95503.00;;;10.30
41593;BMP180;28026;48.562;14.440;2023-02-13T06:35:42;95509.00;;;10.40
41593;BMP180;28026;48.562;14.440;2023-02-13T06:38:12;95508.00;;;10.40
41593;BMP180;28026;48.562;14.440;2023-02-13T06:40:45;95504.00;;;10.40
41593;BMP180;28026;48.562;14.440;2023-02-13T06:43:16;95503.00;;;10.40
41593;BMP180;28026;48.562;14.440;2023-02-13T06:45:47;95498.00;;;10.40
41593;BMP180;28026;48.562;14.440;2023-02-13T06:48:21;95499.00;;;10.40
41593;BMP180;28026;48.562;14.440;2023-02-13T06:50:52;95506.00;;;10.40
41593;BMP180;28026;48.562;14.440;2023-02-13T06:53:24;95507.00;;;10.40
41593;BMP180;28026;48.562;14.440;2023-02-13T06:55:56;95500.00;;;10.40
41593;BMP180;28026;48.562;14.440;2023-02-13T06:58:26;95504.00;;;10.50
41593;BMP180;28026;48.562;14.440;2023-02-13T07:00:57;95502.00;;;10.50
41593;BMP180;28026;48.562;14.440;2023-02-13T07:03:28;95507.00;;;10.50
41593;BMP180;28026;48.562;14.440;2023-02-13T07:05:59;95516.00;;;10.50
41593;BMP180;28026;48.562;14.440;2023-02-13T07:08:30;95520.00;;;10.50
41593;BMP180;28026;48.562;14.440;2023-02-13T07:11:01;95513.00;;;10.50
41593;BMP180;28026;48.562;14.440;2023-02-13T07:13:32;95512.00;;;10.50
41593;BMP180;28026;48.562;14.440;2023-02-13T07:16:03;95514.00;;;10.50
41593;BMP180;28026;48.562;14.440;2023-02-13T07:18:34;95518.00;;;10.50
41593;BMP180;28026;48.562;14.440;2023-02-13T07:21:06;95516.00;;;10.50
41593;BMP180;28026;48.562;14.440;2023-02-13T07:23:38;95518.00;;;10.50
41593;BMP180;28026;48.562;14.440;2023-02-13T07:26:09;95517.00;;;10.50
41593;BMP180;28026;48.562;14.440;2023-02-13T07:28:41;95524.00;;;10.50
41593;BMP180;28026;48.562;14.440;2023-02-13T07:31:11;95531.00;;;10.60
41593;BMP180;28026;48.562;14.440;2023-02-13T07:33:42;95522.00;;;10.60
41593;BMP180;28026;48.562;14.440;2023-02-13T07:36:13;95522.00;;;10.60
41593;BMP180;28026;48.562;14.440;2023-02-13T07:38:45;95527.00;;;10.60
41593;BMP180;28026;48.562;14.440;2023-02-13T07:41:15;95528.00;;;10.60
41593;BMP180;28026;48.562;14.440;2023-02-13T07:43:46;95535.00;;;10.60
41593;BMP180;28026;48.562;14.440;2023-02-13T07:46:17;95529.00;;;10.70
41593;BMP180;28026;48.562;14.440;2023-02-13T07:48:51;95540.00;;;10.70
41593;BMP180;28026;48.562;14.440;2023-02-13T07:51:22;95540.00;;;10.80
41593;BMP180;28026;48.562;14.440;2023-02-13T07:53:58;95539.00;;;10.80
41593;BMP180;28026;48.562;14.440;2023-02-13T07:56:31;95533.00;;;10.90
41593;BMP180;28026;48.562;14.440;2023-02-13T07:59:02;95532.00;;;10.90
41593;BMP180;28026;48.562;14.440;2023-02-13T08:01:33;95534.00;;;10.90
41593;BMP180;28026;48.562;14.440;2023-02-13T08:04:04;95533.00;;;10.90
41593;BMP180;28026;48.562;14.440;2023-02-13T08:06:38;95538.00;;;10.90
41593;BMP180;28026;48.562;14.440;2023-02-13T08:09:20;95535.00;;;10.90
41593;BMP180;28026;48.562;14.440;2023-02-13T08:12:09;95535.00;;;10.90
41593;BMP180;28026;48.562;14.440;2023-02-13T08:14:41;95537.00;;;11.00
41593;BMP180;28026;48.562;14.440;2023-02-13T08:17:11;95539.00;;;11.00
41593;BMP180;28026;48.562;14.440;2023-02-13T08:19:43;95534.00;;;11.10
41593;BMP180;28026;48.562;14.440;2023-02-13T08:22:13;95530.00;;;11.10
41593;BMP180;28026;48.562;14.440;2023-02-13T08:24:45;95535.00;;;11.10
41593;BMP180;28026;48.562;14.440;2023-02-13T08:27:16;95534.00;;;11.10
41593;BMP180;28026;48.562;14.440;2023-02-13T08:29:48;95539.00;;;11.20
41593;BMP180;28026;48.562;14.440;2023-02-13T08:32:21;95540.00;;;11.20
41593;BMP180;28026;48.562;14.440;2023-02-13T08:34:53;95542.00;;;11.30
41593;BMP180;28026;48.562;14.440;2023-02-13T08:37:24;95545.00;;;11.30
41593;BMP180;28026;48.562;14.440;2023-02-13T08:39:54;95539.00;;;11.30
41593;BMP180;28026;48.562;14.440;2023-02-13T08:42:25;95548.00;;;11.30
41593;BMP180;28026;48.562;14.440;2023-02-13T08:44:56;95539.00;;;11.30
41593;BMP180;28026;48.562;14.440;2023-02-13T08:47:27;95545.00;;;11.30
41593;BMP180;28026;48.562;14.440;2023-02-13T08:49:58;95550.00;;;11.40
41593;BMP180;28026;48.562;14.440;2023-02-13T08:52:29;95547.00;;;11.40
41593;BMP180;28026;48.562;14.440;2023-02-13T08:55:00;95552.00;;;11.50
41593;BMP180;28026;48.562;14.440;2023-02-13T08:57:32;95556.00;;;11.50
41593;BMP180;28026;48.562;14.440;2023-02-13T09:00:04;95550.00;;;11.60
41593;BMP180;28026;48.562;14.440;2023-02-13T09:02:35;95561.00;;;11.70
41593;BMP180;28026;48.562;14.440;2023-02-13T09:05:06;95563.00;;;11.70
41593;BMP180;28026;48.562;14.440;2023-02-13T09:07:37;95555.00;;;11.70
41593;BMP180;28026;48.562;14.440;2023-02-13T09:10:08;95554.00;;;11.80
41593;BMP180;28026;48.562;14.440;2023-02-13T09:12:39;95548.00;;;11.80
41593;BMP180;28026;48.562;14.440;2023-02-13T09:15:10;95551.00;;;11.80
41593;BMP180;28026;48.562;14.440;2023-02-13T09:17:41;95552.00;;;11.90
41593;BMP180;28026;48.562;14.440;2023-02-13T09:20:12;95561.00;;;11.90
41593;BMP180;28026;48.562;14.440;2023-02-13T09:22:44;95552.00;;;12.00
41593;BMP180;28026;48.562;14.440;2023-02-13T09:25:15;95551.00;;;12.00
41593;BMP180;28026;48.562;14.440;2023-02-13T09:27:45;95559.00;;;12.10
41593;BMP180;28026;48.562;14.440;2023-02-13T09:30:16;95564.00;;;12.20
41593;BMP180;28026;48.562;14.440;2023-02-13T09:32:54;95555.00;;;12.20
41593;BMP180;28026;48.562;14.440;2023-02-13T09:35:25;95562.00;;;12.20
41593;BMP180;28026;48.562;14.440;2023-02-13T09:37:56;95565.00;;;12.20
41593;BMP180;28026;48.562;14.440;2023-02-13T09:40:35;95562.00;;;12.30
41593;BMP180;28026;48.562;14.440;2023-02-13T09:43:28;95564.00;;;12.20
41593;BMP180;28026;48.562;14.440;2023-02-13T09:46:23;95566.00;;;12.20
41593;BMP180;28026;48.562;14.440;2023-02-13T09:49:05;95559.00;;;12.20
41593;BMP180;28026;48.562;14.440;2023-02-13T09:51:44;95570.00;;;12.20
41593;BMP180;28026;48.562;14.440;2023-02-13T09:54:21;95571.00;;;12.10
41593;BMP180;28026;48.562;14.440;2023-02-13T09:56:57;95568.00;;;12.10
41593;BMP180;28026;48.562;14.440;2023-02-13T10:03:12;95578.00;;;12.10
41593;BMP180;28026;48.562;14.440;2023-02-13T10:06:42;95589.00;;;12.20
41593;BMP180;28026;48.562;14.440;2023-02-13T10:12:57;95582.00;;;12.20
41593;BMP180;28026;48.562;14.440;2023-02-13T10:16:11;95580.00;;;12.20
41593;BMP180;28026;48.562;14.440;2023-02-13T10:19:11;95585.00;;;12.20
41593;BMP180;28026;48.562;14.440;2023-02-13T10:21:59;95577.00;;;12.20
41593;BMP180;28026;48.562;14.440;2023-02-13T10:27:37;95582.00;;;12.20
41593;BMP180;28026;48.562;14.440;2023-02-13T10:30:33;95575.00;;;12.20
41593;BMP180;28026;48.562;14.440;2023-02-13T10:33:16;95582.00;;;12.30
41593;BMP180;28026;48.562;14.440;2023-02-13T10:36:00;95572.00;;;12.30
41593;BMP180;28026;48.562;14.440;2023-02-13T10:38:42;95574.00;;;12.30
41593;BMP180;28026;48.562;14.440;2023-02-13T10:53:42;95561.00;;;12.40
41593;BMP180;28026;48.562;14.440;2023-02-13T11:00:17;95549.00;;;12.30
41593;BMP180;28026;48.562;14.440;2023-02-13T11:02:58;95553.00;;;12.30
41593;BMP180;28026;48.562;14.440;2023-02-13T11:05:37;95556.00;;;12.40
41593;BMP180;28026;48.562;14.440;2023-02-13T11:08:29;95547.00;;;12.40
41593;BMP180;28026;48.562;14.440;2023-02-13T11:11:02;95554.00;;;12.40
41593;BMP180;28026;48.562;14.440;2023-02-13T11:13:33;95558.00;;;12.50
41593;BMP180;28026;48.562;14.440;2023-02-13T11:16:08;95548.00;;;12.50
41593;BMP180;28026;48.562;14.440;2023-02-13T11:18:42;95559.00;;;12.50
41593;BMP180;28026;48.562;14.440;2023-02-13T11:21:35;95558.00;;;12.50
41593;BMP180;28026;48.562;14.440;2023-02-13T11:24:26;95560.00;;;12.50
41593;BMP180;28026;48.562;14.440;2023-02-13T11:27:06;95555.00;;;12.60
41593;BMP180;28026;48.562;14.440;2023-02-13T11:29:58;95557.00;;;12.60
41593;BMP180;28026;48.562;14.440;2023-02-13T11:32:34;95555.00;;;12.50
41593;BMP180;28026;48.562;14.440;2023-02-13T11:35:35;95562.00;;;12.50
41593;BMP180;28026;48.562;14.440;2023-02-13T11:40:45;95560.00;;;12.40
41593;BMP180;28026;48.562;14.440;2023-02-13T11:43:29;95563.00;;;12.40
41593;BMP180;28026;48.562;14.440;2023-02-13T11:46:22;95563.00;;;12.40
41593;BMP180;28026;48.562;14.440;2023-02-13T11:49:05;95563.00;;;12.40
41593;BMP180;28026;48.562;14.440;2023-02-13T11:51:55;95559.00;;;12.50
41593;BMP180;28026;48.562;14.440;2023-02-13T11:54:37;95564.00;;;12.50
41593;BMP180;28026;48.562;14.440;2023-02-13T11:57:22;95566.00;;;12.50
41593;BMP180;28026;48.562;14.440;2023-02-13T11:59:53;95566.00;;;12.60
41593;BMP180;28026;48.562;14.440;2023-02-13T12:02:31;95566.00;;;12.50
41593;BMP180;28026;48.562;14.440;2023-02-13T12:05:26;95560.00;;;12.50
41593;BMP180;28026;48.562;14.440;2023-02-13T12:08:01;95559.00;;;12.50
41593;BMP180;28026;48.562;14.440;2023-02-13T12:10:35;95561.00;;;12.60
41593;BMP180;28026;48.562;14.440;2023-02-13T12:13:37;95547.00;;;12.60
41593;BMP180;28026;48.562;14.440;2023-02-13T12:19:23;95529.00;;;12.70
41593;BMP180;28026;48.562;14.440;2023-02-13T12:25:26;95529.00;;;12.80
41593;BMP180;28026;48.562;14.440;2023-02-13T12:28:18;95519.00;;;12.70
41593;BMP180;28026;48.562;14.440;2023-02-13T12:43:06;95529.00;;;12.90
41593;BMP180;28026;48.562;14.440;2023-02-13T12:46:36;95526.00;;;12.90
41593;BMP180;28026;48.562;14.440;2023-02-13T12:49:37;95534.00;;;12.90
41593;BMP180;28026;48.562;14.440;2023-02-13T12:56:18;95534.00;;;12.80
41593;BMP180;28026;48.562;14.440;2023-02-13T12:59:06;95524.00;;;12.80
41593;BMP180;28026;48.562;14.440;2023-02-13T13:15:06;95532.00;;;12.60
41593;BMP180;28026;48.562;14.440;2023-02-13T13:20:57;95532.00;;;12.60
41593;BMP180;28026;48.562;14.440;2023-02-13T13:26:59;95522.00;;;12.60
41593;BMP180;28026;48.562;14.440;2023-02-13T13:29:45;95529.00;;;12.60
41593;BMP180;28026;48.562;14.440;2023-02-13T13:32:39;95529.00;;;12.50
41593;BMP180;28026;48.562;14.440;2023-02-13T13:35:14;95522.00;;;12.50
41593;BMP180;28026;48.562;14.440;2023-02-13T13:37:57;95525.00;;;12.50
41593;BMP180;28026;48.562;14.440;2023-02-13T13:41:00;95521.00;;;12.50
41593;BMP180;28026;48.562;14.440;2023-02-13T13:47:15;95515.00;;;12.50
41593;BMP180;28026;48.562;14.440;2023-02-13T13:50:24;95510.00;;;12.50
41593;BMP180;28026;48.562;14.440;2023-02-13T13:53:19;95509.00;;;12.60
41593;BMP180;28026;48.562;14.440;2023-02-13T13:58:40;95498.00;;;12.60
41593;BMP180;28026;48.562;14.440;2023-02-13T14:01:28;95499.00;;;12.70
41593;BMP180;28026;48.562;14.440;2023-02-13T14:04:09;95499.00;;;12.70
41593;BMP180;28026;48.562;14.440;2023-02-13T14:09:40;95506.00;;;12.80
41593;BMP180;28026;48.562;14.440;2023-02-13T14:14:59;95502.00;;;12.70
41593;BMP180;28026;48.562;14.440;2023-02-13T14:25:44;95502.00;;;12.70
41593;BMP180;28026;48.562;14.440;2023-02-13T14:28:24;95504.00;;;12.70
41593;BMP180;28026;48.562;14.440;2023-02-13T14:31:34;95501.00;;;12.70
41593;BMP180;28026;48.562;14.440;2023-02-13T14:34:19;95495.00;;;12.70
41593;BMP180;28026;48.562;14.440;2023-02-13T14:37:17;95485.00;;;12.70
41593;BMP180;28026;48.562;14.440;2023-02-13T14:42:53;95480.00;;;12.60
41593;BMP180;28026;48.562;14.440;2023-02-13T14:45:35;95490.00;;;12.50
41593;BMP180;28026;48.562;14.440;2023-02-13T14:48:19;95486.00;;;12.40
41593;BMP180;28026;48.562;14.440;2023-02-13T14:50:56;95487.00;;;12.30
41593;BMP180;28026;48.562;14.440;2023-02-13T14:53:50;95481.00;;;12.20
41593;BMP180;28026;48.562;14.440;2023-02-13T14:56:25;95484.00;;;12.20
41593;BMP180;28026;48.562;14.440;2023-02-13T14:59:14;95479.00;;;12.20
41593;BMP180;28026;48.562;14.440;2023-02-13T15:04:59;95475.00;;;12.20
41593;BMP180;28026;48.562;14.440;2023-02-13T15:07:37;95481.00;;;12.30
41593;BMP180;28026;48.562;14.440;2023-02-13T15:10:43;95478.00;;;12.20
41593;BMP180;28026;48.562;14.440;2023-02-13T15:13:30;95476.00;;;12.20
41593;BMP180;28026;48.562;14.440;2023-02-13T15:16:12;95480.00;;;12.20
41593;BMP180;28026;48.562;14.440;2023-02-13T15:18:50;95477.00;;;12.20
41593;BMP180;28026;48.562;14.440;2023-02-13T15:21:25;95476.00;;;12.20
41593;BMP180;28026;48.562;14.440;2023-02-13T15:24:02;95474.00;;;12.10
41593;BMP180;28026;48.562;14.440;2023-02-13T15:26:33;95478.00;;;12.00
41593;BMP180;28026;48.562;14.440;2023-02-13T15:29:18;95477.00;;;11.90
41593;BMP180;28026;48.562;14.440;2023-02-13T15:31:49;95473.00;;;11.90
41593;BMP180;28026;48.562;14.440;2023-02-13T15:34:30;95477.00;;;11.90
41593;BMP180;28026;48.562;14.440;2023-02-13T15:37:03;95471.00;;;11.90
41593;BMP180;28026;48.562;14.440;2023-02-13T15:39:34;95479.00;;;11.90
41593;BMP180;28026;48.562;14.440;2023-02-13T15:42:05;95478.00;;;11.90
41593;BMP180;28026;48.562;14.440;2023-02-13T15:44:38;95478.00;;;11.90
41593;BMP180;28026;48.562;14.440;2023-02-13T15:47:28;95476.00;;;12.00
41593;BMP180;28026;48.562;14.440;2023-02-13T15:50:01;95477.00;;;11.90
41593;BMP180;28026;48.562;14.440;2023-02-13T15:52:36;95471.00;;;11.90
41593;BMP180;28026;48.562;14.440;2023-02-13T15:55:25;95465.00;;;11.90
41593;BMP180;28026;48.562;14.440;2023-02-13T15:58:00;95471.00;;;11.90
41593;BMP180;28026;48.562;14.440;2023-02-13T16:00:36;95466.00;;;11.90
41593;BMP180;28026;48.562;14.440;2023-02-13T16:03:16;95473.00;;;11.90
41593;BMP180;28026;48.562;14.440;2023-02-13T16:05:49;95463.00;;;11.80
41593;BMP180;28026;48.562;14.440;2023-02-13T16:08:33;95461.00;;;11.80
41593;BMP180;28026;48.562;14.440;2023-02-13T16:11:35;95466.00;;;11.70
41593;BMP180;28026;48.562;14.440;2023-02-13T16:14:20;95467.00;;;11.70
41593;BMP180;28026;48.562;14.440;2023-02-13T16:17:33;95466.00;;;11.60
41593;BMP180;28026;48.562;14.440;2023-02-13T16:20:28;95466.00;;;11.50
41593;BMP180;28026;48.562;14.440;2023-02-13T16:23:19;95473.00;;;11.60
41593;BMP180;28026;48.562;14.440;2023-02-13T16:25:50;95458.00;;;11.60
41593;BMP180;28026;48.562;14.440;2023-02-13T16:28:25;95463.00;;;11.60
41593;BMP180;28026;48.562;14.440;2023-02-13T16:31:03;95463.00;;;11.60
41593;BMP180;28026;48.562;14.440;2023-02-13T16:33:42;95463.00;;;11.60
41593;BMP180;28026;48.562;14.440;2023-02-13T16:38:50;95471.00;;;11.60
41593;BMP180;28026;48.562;14.440;2023-02-13T16:44:05;95462.00;;;11.50
41593;BMP180;28026;48.562;14.440;2023-02-13T16:47:04;95465.00;;;11.50
41593;BMP180;28026;48.562;14.440;2023-02-13T16:49:36;95467.00;;;11.50
41593;BMP180;28026;48.562;14.440;2023-02-13T16:52:17;95480.00;;;11.40
41593;BMP180;28026;48.562;14.440;2023-02-13T16:55:00;95480.00;;;11.40
41593;BMP180;28026;48.562;14.440;2023-02-13T16:57:35;95477.00;;;11.30
41593;BMP180;28026;48.562;14.440;2023-02-13T17:00:18;95485.00;;;11.30
41593;BMP180;28026;48.562;14.440;2023-02-13T17:02:52;95482.00;;;11.30
41593;BMP180;28026;48.562;14.440;2023-02-13T17:05:27;95489.00;;;11.30
41593;BMP180;28026;48.562;14.440;2023-02-13T17:07:59;95491.00;;;11.30
41593;BMP180;28026;48.562;14.440;2023-02-13T17:10:36;95490.00;;;11.30
41593;BMP180;28026;48.562;14.440;2023-02-13T17:15:44;95487.00;;;11.30
41593;BMP180;28026;48.562;14.440;2023-02-13T17:18:16;95486.00;;;11.30
41593;BMP180;28026;48.562;14.440;2023-02-13T17:20:47;95488.00;;;11.30
41593;BMP180;28026;48.562;14.440;2023-02-13T17:23:22;95485.00;;;11.30